• Join FlightAware (Why Join?)
  • Login
  • US Flag 
03:30PM EST


 

Airport Tracker/Info


-or-


 

Live Flight TrackerFlight Track Log ✈ UAL252 ✈ 06-Aug-2013 ✈ KDCA - KORD

Flight Track Log - Related Links

Times and Time Zones

All times are in EDT time to prevent confusion due to time zone crossing. See the UAL252 flight status page for this flight to view local times or setup timezone preferences in your user account.

Time Position Orientation Groundspeed Altitude Reporting Facility
EDT Latitude Longitude Course Direction KTS MPH feet Rate Location/Type
01:24PM 38.8333 -77.0333 275° West 141 162 1,100  Level Potomac TRACON
01:25PM 38.8000 -77.0333 180° South 139 160 3,200 1,980 Climbing Potomac TRACON
01:26PM 38.7667 -77.0667 218° Southwest 225 259 5,100 2,820 Climbing Potomac TRACON
01:27PM 38.9333 -77.6253 270° West  Level FlightAware Approximate
01:27PM 38.7833 -77.1500 284° West 281 323 8,900  Level Potomac TRACON
01:28PM 38.9333 -77.7510 270° West  Level FlightAware Approximate
01:29PM 38.9403 -77.8763 275° West  Level FlightAware Approximate
01:29PM 38.8600 -77.4097 291° West 354 407 15,300  Level Washington Center
01:30PM 38.8936 -77.5228 291° West 368 423 17,000 840 Climbing Washington Center
01:31PM 38.9353 -77.6572 292° West 374 430 17,000 960 Level Washington Center
01:32PM 38.9475 -77.7883 277° West 368 423 19,000 2,040 Climbing Washington Center
01:33PM 38.9514 -77.9164 272° West 385 443 21,200 2,340 Climbing Washington Center
01:34PM 38.9547 -78.0581 272° West 397 457 23,700 2,340 Climbing Washington Center
01:35PM 38.9581 -78.1997 272° West 404 465 25,900 1,920 Climbing Washington Center
01:36PM 38.9631 -78.3494 273° West 414 476 27,700 1,800 Climbing Washington Center
01:37PM 38.9681 -78.4964 273° West 419 482 29,500 2,040 Climbing Washington Center
01:38PM 38.9728 -78.6433 272° West 419 482 31,800 1,200 Climbing Washington Center
01:39PM 38.9753 -78.7850 271° West 419 482 32,000 -780 Climbing Washington Center
01:40PM 38.9819 -78.9269 274° West 408 470 30,300 -1,020 Descending Washington Center
01:41PM 38.9842 -79.0686 271° West 403 464 30,000 -180 Descending Washington Center
01:42PM 38.9881 -79.2131 272° West 403 464 30,000  Level Washington Center
01:43PM 38.9919 -79.3575 272° West 408 470 30,000  Level Washington Center
01:44PM 38.9936 -79.5017 271° West 408 470 30,000  Level Washington Center
01:45PM 38.9986 -79.6703 272° West 419 482 30,000  Level Washington Center
01:46PM 39.0019 -79.8147 272° West 424 488 30,000 -780 Level Washington Center
01:47PM 39.0022 -79.9492 270° West 405 466 28,400 -960 Descending Indianapolis Center
01:48PM 39.0042 -80.1031 271° West 411 473 28,000 -240 Descending Indianapolis Center
01:49PM 39.0064 -80.2528 271° West 419 482 28,000  Level Indianapolis Center
01:50PM 39.0264 -80.4253 279° West 413 475 28,000  Level Indianapolis Center
01:51PM 39.0811 -80.5503 299° West 404 465 28,000  Level Indianapolis Center
01:52PM 39.1353 -80.6742 299° West 400 460 28,000  Level Indianapolis Center
01:53PM 39.1903 -80.7994 300° West 400 460 28,000  Level Indianapolis Center
01:54PM 39.2447 -80.9242 299° West 401 461 28,000  Level Indianapolis Center
01:55PM 39.2994 -81.0467 300° West 398 458 28,000  Level Indianapolis Center
01:57PM 39.3525 -81.1700 299° West 396 456 28,000  Level Indianapolis Center
01:58PM 39.4178 -81.3203 299° West 400 460 28,000  Level Indianapolis Center
01:59PM 39.4714 -81.4439 299° West 398 458 28,000  Level Indianapolis Center
02:00PM 39.5250 -81.5694 299° West 400 460 28,000  Level Indianapolis Center
02:01PM 39.5786 -81.6975 299° West 404 465 28,000  Level Indianapolis Center
02:02PM 39.6283 -81.8167 298° West 387 445 28,000  Level Indianapolis Center
02:03PM 39.6778 -81.9350 299° West 377 434 28,000  Level Indianapolis Center
02:04PM 39.7369 -82.0761 299° West 374 430 28,000  Level Indianapolis Center
02:05PM 39.7872 -82.1942 299° West 374 430 28,000  Level Indianapolis Center
02:06PM 39.8369 -82.3131 299° West 376 433 28,000  Level Indianapolis Center
02:07PM 39.8864 -82.4353 298° West 381 438 28,000  Level Indianapolis Center
02:08PM 39.9375 -82.5542 299° West 377 434 28,000  Level Indianapolis Center
02:09PM 39.9936 -82.6922 298° West 381 438 28,000  Level Indianapolis Center
02:10PM 40.0450 -82.8158 299° West 383 441 28,000  Level Indianapolis Center
02:11PM 40.0956 -82.9406 298° West 383 441 28,000  Level Indianapolis Center
02:12PM 40.1467 -83.0656 298° West 387 445 28,000  Level Indianapolis Center
02:13PM 40.1981 -83.1911 298° West 388 447 28,000  Level Indianapolis Center
02:14PM 40.2486 -83.3178 298° West 388 447 28,000  Level Indianapolis Center
02:15PM 40.2997 -83.4447 298° West 389 448 28,000  Level Indianapolis Center
02:16PM 40.3494 -83.5711 297° West 387 445 28,000  Level Indianapolis Center
02:17PM 40.4094 -83.7183 298° West 388 447 28,000  Level Indianapolis Center
02:18PM 40.4594 -83.8453 297° West 387 445 28,000  Level Indianapolis Center
02:20PM 40.5544 -84.0886 297° West 383 441 28,000  Level Indianapolis Center
02:21PM 40.6039 -84.2133 298° West 386 444 28,000  Level Indianapolis Center
02:22PM 40.6625 -84.3625 297° West 386 444 28,000  Level Indianapolis Center
02:23PM 40.7111 -84.4881 297° West 386 444 28,000  Level Indianapolis Center
02:24PM 40.7578 -84.6122 296° West 382 440 28,000  Level Indianapolis Center
02:25PM 40.8058 -84.7381 297° West 384 442 28,000 -60 Level Indianapolis Center
02:26PM 40.8547 -84.8636 297° West 386 444 27,900 -1,320 Descending Indianapolis Center
02:27PM 40.9022 -84.9883 297° West 384 442 25,300 -1,440 Descending Indianapolis Center
02:28PM 40.9603 -85.1428 297° West 393 452 25,000 -180 Descending Indianapolis Center
02:29PM 41.0306 -85.2669 307° West 420 483 25,000  Level Indianapolis Center
02:31PM 41.1097 -85.3861 311° West 433 498 25,000  Level Indianapolis Center
02:32PM 41.1692 -85.5219 300° West 434 499 25,000 -840 Level Indianapolis Center
02:33PM 41.2236 -85.6614 297° West 428 493 23,300 -1,020 Descending Indianapolis Center
02:34PM 41.2772 -85.8003 297° West 426 490 23,000 -180 Descending Indianapolis Center
02:35PM 41.3403 -85.9631 297° West 421 484 23,000 -240 Level Indianapolis Center
02:36PM 41.3894 -86.1028 295° West 419 482 22,600 -1,620 Descending Indianapolis Center
02:37PM 41.4386 -86.2361 296° West 414 476 19,800 -2,880 Descending Indianapolis Center
02:38PM 41.4886 -86.3631 298° West 405 466 16,800 -2,520 Descending Indianapolis Center
02:39PM 41.5578 -86.5414 297° West 363 418 13,500 -1,920 Descending Chicago Center
02:40PM 41.6028 -86.6564 298° West 353 406 12,000 -780 Descending Chicago Center
02:41PM 41.6506 -86.7758 298° West 353 406 12,000  Level Chicago Center
02:42PM 41.7431 -86.8056 347° North 345 397 12,000  Level Chicago Center
02:43PM 41.8569 -86.8294 351° North 349 402 12,000 -780 Level Chicago Center
02:44PM 41.9294 -86.9028 323° Northwest 334 384 10,500 -1,020 Descending Chicago Center
02:45PM 41.9775 -87.0083 302° West 336 387 10,000 -240 Descending Chicago Center
02:46PM 41.9806 -87.1286 272° West 331 381 10,100 -720 Climbing Chicago Center
02:47PM 41.9822 -87.2303 271° West 293 337 8,600 -1,500 Descending Chicago Center
02:49PM 41.9822 -87.3486 270° West 270 311 7,000 -780 Descending Chicago Center
02:50PM 41.9831 -87.4322 271° West 238 274 7,000 -300 Level Chicago Center
02:51PM 41.9833 -87.5036 270° West 199 229 6,500 -900 Descending Chicago Center
02:52PM 41.9833 -87.5658 270° West 177 204 5,200 -1,020 Descending Chicago Center
02:53PM 41.9833 -87.6286 270° West 170 196 4,400 -960 Descending Chicago Center
02:54PM 41.9836 -87.7089 270° West 176 203 3,300 -1,020 Descending Chicago Center
02:55PM 41.9836 -87.7742 270° West 177 204 2,300 -840 Descending Chicago Center
02:56PM 41.9850 -87.8331 272° West 171 197 1,600 -720 Descending Chicago Center
02:57PM 41.9833 -87.8833 267° West 120 138 900 -720 Descending Chicago TRACON